VHHHZJSY

Guest
Details From VHHH - Hong Kong Intl
To ZJSY - Phoenix Intl
Flight Number -
Tags Generated
Created
Modified
Stats Distance 352 nm / 652 km
Max Altitude 0 ft / 0 m
Waypoints 3
Social Downloads 1
Likes 0
Share VATSIM

Download

Looking for another format? Having issues loading an existing format? Contact us
Advertisement - Login to hide

Notes

Generated

Route

VHHH WL ZJSY

ID Type Via Altitude Latitude Longitude Leg Dist Tot Dist Heading (true) Name
O VHHH APT - 0 ft / 0 m 22.29628˚ 113.89799˚ - 0 nm - -
WL NDB - 0 ft / 0 m 18.48833˚ 109.40500˚ 340 nm 340 nm 229° / 227° BAOLONG NDB
O ZJSY APT - 0 ft / 0 m 18.30083˚ 109.39639˚ 11 nm 352 nm 182° / 182° -

Altitude Profile

Advertisement - Login to hide

Weather


0- 5 10 15 20 25 30 35+ Temperature / ° C

Clouds and Precipitation
Forecast for 2017-12-17 12:00 UTC. Updated an hour ago

Ground ~20,000 ft ~40,000 ft Winds

VHHH

Details ICAO VHHH (HKG)
Name Hong Kong Intl
Region Hong Kong
Timezone Unknown (UTC+0.0)
Stats Elevation 28 ft / 9 m (AMSL)
Location 22.308995° 113.914610°
Runways 2
Magnetic Variation 2.822° W

METAR

VHHH 171200Z 03008KT 360V060 8000 FEW045 12/04 Q1027 NOSIG

Decode

TAF

TAF VHHH 171100Z 1712/1818 01010KT 8000 FEW040 TX17/1806Z TN10/1723Z

Decode

Departure Runways

ID Width Length Bearing (true) Bearing (mag) Surface Threshold Offset Overrun Length
07L 197 ft / 60 m 12,457 ft / 3,797 m 70.79° 73.61° Asphalt 564 ft / 172 m 866 ft / 264 m
07R 197 ft / 60 m 12,458 ft / 3,797 m 70.79° 73.61° Asphalt 525 ft / 160 m 886 ft / 270 m
25L 197 ft / 60 m 12,458 ft / 3,797 m 250.80° 253.62° Asphalt 0 ft / 0 m 840 ft / 256 m
25R 197 ft / 60 m 12,457 ft / 3,797 m 250.80° 253.62° Asphalt 581 ft / 177 m 860 ft / 262 m

ZJSY

Details ICAO ZJSY (SYX)
Name PHOENIX INTL
Region China
Timezone Asia/Chongqing (UTC+8.0)
Stats Elevation 92 ft / 28 m (AMSL)
Location 18.302892° 109.412268°
Runways 1
Magnetic Variation 1.586° W

METAR

ZJSY 171200Z 09005MPS CAVOK 17/10 Q1022 NOSIG

Decode

TAF

Not found

Destination Runways

ID Width Length Bearing (true) Bearing (mag) Surface Threshold Offset Overrun Length
08 148 ft / 45 m 11,103 ft / 3,384 m 82.20° 83.79° Concrete 0 ft / 0 m 195 ft / 59 m
26 148 ft / 45 m 11,103 ft / 3,384 m 262.21° 263.80° Concrete 0 ft / 0 m 195 ft / 59 m

Approach Navaids

Runway Type Ident Frequency Range Bearing (true) Bearing (mag) Slope Elevation
08 Localiser IKK 109.50 MHz 18 nm / 33 km 82.13° 83.71° - 92 ft / 28 m (AMSL)
08 Glidescope IKK 109.50 MHz 10 nm / 19 km 82.20° 83.79° 3.00° 68 ft / 21 m (AMSL)
08 DME IKK 109.50 MHz 18 nm / 33 km - - - 68 ft / 21 m (AMSL)

Popular Alternatives